This is the latest recevied weather packets stored in our database for station/object OE-11349. If no packets are shown the sender has not sent any weather packets the latest 10 day(s).
| Time | Temp. | Humidity | Pressure | Rain* | Wind** | Luminosity | Snow |
|---|---|---|---|---|---|---|---|
| 1787743509 | 19.44° C | 50% | 854.9 hPa | - | - | 915 W/m² | - |
| 1787742682 | 18.89° C | 52% | 854.8 hPa | - | - | 578 W/m² | - |
| 1787742309 | 18.89° C | 52% | 854.9 hPa | - | - | 874 W/m² | - |
| 1787741708 | 18.89° C | 52% | 854.8 hPa | - | - | 819 W/m² | - |
| 1787740882 | 18.89° C | 54% | 854.9 hPa | - | - | 812 W/m² | - |
| 1787740509 | 18.33° C | 57% | 855 hPa | - | - | 798 W/m² | - |
| 1787739909 | 18.33° C | 57% | 855 hPa | - | - | 791 W/m² | - |
| 1787739081 | 17.22° C | 59% | 855.1 hPa | - | - | 668 W/m² | - |
| 1787738709 | 17.22° C | 59% | 855.1 hPa | - | - | 241 W/m² | - |
| 1787738109 | 17.78° C | 59% | 855.1 hPa | - | - | 654 W/m² | - |
| 1787737282 | 17.22° C | 59% | 855.1 hPa | - | - | 592 W/m² | - |
| 1787736908 | 17.78° C | 56% | 855.1 hPa | - | - | 729 W/m² | - |
| 1787736309 | 17.78° C | 54% | 855.1 hPa | - | - | 709 W/m² | - |
| 1787735482 | 17.22° C | 54% | 854.9 hPa | - | - | 688 W/m² | - |
| 1787735109 | 17.22° C | 56% | 854.9 hPa | - | - | 681 W/m² | - |
| 1787733682 | 16.67° C | 58% | 854.7 hPa | - | - | 626 W/m² | - |
| 1787733309 | 16.67° C | 58% | 854.7 hPa | - | - | 612 W/m² | - |
| 1787732708 | 16.67° C | 56% | 854.7 hPa | - | - | 585 W/m² | - |
| 1787731882 | 16.67° C | 59% | 854.7 hPa | - | - | 564 W/m² | - |
| 1787731509 | 16.11° C | 62% | 854.7 hPa | - | - | 537 W/m² | - |
| 1787730909 | 15.56° C | 66% | 854.7 hPa | - | - | 516 W/m² | - |
| 1787730082 | 14.44° C | 71% | 854.7 hPa | - | - | 447 W/m² | - |
| 1787729709 | 13.33° C | 78% | 854.6 hPa | - | - | 385 W/m² | - |
| 1787729109 | 12.78° C | 82% | 854.7 hPa | - | - | 262 W/m² | - |
| 1787728281 | 12.78° C | 82% | 854.6 hPa | - | - | 296 W/m² | - |
* Rain since midnight (hover to see other rain measurements)
** Current wind speed in m/s (hover to see current wind gust speed)